createdAt,value
2017-11-13T00:01:12.584Z,1.60
2017-11-13T00:03:40.726Z,1.60
2017-11-13T00:06:08.313Z,1.60
2017-11-13T00:08:36.116Z,1.60
2017-11-13T00:11:04.077Z,1.60
2017-11-13T00:13:34.321Z,1.60
2017-11-13T00:16:02.189Z,1.60
2017-11-13T00:18:29.898Z,1.60
2017-11-13T00:20:57.652Z,1.60
2017-11-13T00:23:25.482Z,1.60
2017-11-13T00:25:53.937Z,1.60
2017-11-13T00:28:21.471Z,1.50
2017-11-13T00:30:49.035Z,1.60
2017-11-13T00:33:16.720Z,1.60
2017-11-13T00:35:44.291Z,1.60
2017-11-13T00:38:11.837Z,1.60
2017-11-13T00:40:39.626Z,1.60
2017-11-13T00:43:08.022Z,1.60
2017-11-13T00:45:36.323Z,1.50
2017-11-13T00:48:04.064Z,1.50
2017-11-13T00:50:31.888Z,1.50
2017-11-13T00:52:59.467Z,1.50
2017-11-13T00:55:27.024Z,1.40
2017-11-13T00:57:54.817Z,1.40
2017-11-13T01:00:22.413Z,1.30
2017-11-13T01:02:49.952Z,1.30
2017-11-13T01:05:17.473Z,1.30
2017-11-13T01:07:45.764Z,1.30
2017-11-13T01:10:13.553Z,1.20
2017-11-13T01:12:41.083Z,1.30
2017-11-13T01:15:09.565Z,1.30
2017-11-13T01:17:37.119Z,1.30
2017-11-13T01:20:04.657Z,1.40
2017-11-13T01:22:32.426Z,1.30
2017-11-13T01:25:00.724Z,1.40
2017-11-13T01:27:28.984Z,1.40
2017-11-13T01:29:57.319Z,1.30
2017-11-13T01:32:25.603Z,1.40
2017-11-13T01:34:53.168Z,1.40
2017-11-13T01:37:20.668Z,1.40
2017-11-13T01:39:48.977Z,1.40
2017-11-13T01:42:16.501Z,1.40
2017-11-13T01:44:44.844Z,1.40
2017-11-13T01:47:12.363Z,1.40
2017-11-13T01:49:39.901Z,1.40
2017-11-13T01:52:08.458Z,1.40
2017-11-13T01:54:35.977Z,1.40
2017-11-13T01:57:03.563Z,1.50
2017-11-13T01:59:31.188Z,1.50
2017-11-13T02:01:58.750Z,1.40
2017-11-13T02:04:26.301Z,1.50
2017-11-13T02:06:53.822Z,1.50
2017-11-13T02:09:21.346Z,1.50
2017-11-13T02:11:49.645Z,1.50
2017-11-13T02:14:17.250Z,1.50
2017-11-13T02:16:44.824Z,1.50
2017-11-13T02:19:12.425Z,1.40
2017-11-13T02:21:39.940Z,1.40
2017-11-13T02:24:07.513Z,1.40
2017-11-13T02:26:35.029Z,1.40
2017-11-13T02:29:03.307Z,1.40
2017-11-13T02:31:31.818Z,1.40
2017-11-13T02:33:59.411Z,1.40
2017-11-13T02:36:27.006Z,1.40
2017-11-13T02:38:55.277Z,1.40
2017-11-13T02:41:23.590Z,1.40
2017-11-13T02:43:51.124Z,1.40
2017-11-13T02:46:18.669Z,1.40
2017-11-13T02:48:46.967Z,1.40
2017-11-13T02:51:14.541Z,1.40
2017-11-13T02:53:42.055Z,1.40
2017-11-13T02:56:10.553Z,1.40
2017-11-13T02:58:39.382Z,1.40
2017-11-13T03:01:08.021Z,1.40
2017-11-13T03:03:35.571Z,1.40
2017-11-13T03:06:03.518Z,1.40
2017-11-13T03:08:31.034Z,1.40
2017-11-13T03:10:58.630Z,1.40
2017-11-13T03:13:26.171Z,1.30
2017-11-13T03:15:53.710Z,1.40
2017-11-13T03:18:21.261Z,1.30
2017-11-13T03:20:48.824Z,1.30
2017-11-13T03:23:16.382Z,1.30
2017-11-13T03:25:43.970Z,1.30
2017-11-13T03:28:11.503Z,1.20
2017-11-13T03:30:39.028Z,1.20
2017-11-13T03:33:07.356Z,1.20
2017-11-13T03:35:35.153Z,1.10
2017-11-13T03:38:02.700Z,1.20
2017-11-13T03:40:30.205Z,1.20
2017-11-13T03:42:58.508Z,1.20
2017-11-13T03:45:26.088Z,1.10
2017-11-13T03:47:53.634Z,1.10
2017-11-13T03:50:21.257Z,1.10
2017-11-13T03:52:49.586Z,1.20
2017-11-13T03:55:17.819Z,1.10
2017-11-13T03:57:45.369Z,1.20
2017-11-13T04:00:13.676Z,1.10
2017-11-13T04:02:41.220Z,1.10
2017-11-13T04:05:08.778Z,1.10
2017-11-13T04:07:36.317Z,1.10
2017-11-13T04:10:04.639Z,1.20
2017-11-13T04:12:32.234Z,1.10
2017-11-13T04:14:59.789Z,1.10
2017-11-13T04:17:27.309Z,1.10
2017-11-13T04:19:55.600Z,1.10
2017-11-13T04:22:23.152Z,1.10
2017-11-13T04:24:50.800Z,1.10
2017-11-13T04:27:18.343Z,1.10
2017-11-13T04:29:45.868Z,1.10
2017-11-13T04:32:14.201Z,1.00
2017-11-13T04:34:41.795Z,1.00
2017-11-13T04:37:09.392Z,1.00
2017-11-13T04:39:36.920Z,1.20
2017-11-13T04:42:04.483Z,1.10
2017-11-13T04:44:32.017Z,1.20
2017-11-13T04:46:59.599Z,1.10
2017-11-13T04:49:27.175Z,1.10
2017-11-13T04:51:55.476Z,1.20
2017-11-13T04:54:23.035Z,1.20
2017-11-13T04:56:50.620Z,1.10
2017-11-13T04:59:18.112Z,1.10
2017-11-13T05:01:45.781Z,1.10
2017-11-13T05:04:14.225Z,1.10
2017-11-13T05:06:41.812Z,1.10
2017-11-13T05:09:09.397Z,1.10
2017-11-13T05:11:36.950Z,1.10
2017-11-13T05:14:05.261Z,1.10
2017-11-13T05:16:32.782Z,1.10
2017-11-13T05:19:01.242Z,1.20
2017-11-13T05:21:28.812Z,1.20
2017-11-13T05:23:56.417Z,1.20
2017-11-13T05:26:24.013Z,1.20
2017-11-13T05:28:51.577Z,1.10
2017-11-13T05:31:19.115Z,1.10
2017-11-13T05:33:46.719Z,1.10
2017-11-13T05:36:15.141Z,1.10
2017-11-13T05:38:42.694Z,1.10
2017-11-13T05:41:11.925Z,1.10
2017-11-13T05:43:39.432Z,1.10
2017-11-13T05:46:09.413Z,1.10
2017-11-13T05:48:40.545Z,1.10
2017-11-13T05:51:10.821Z,1.10
2017-11-13T05:53:38.329Z,1.10
2017-11-13T05:56:05.848Z,1.20
2017-11-13T05:58:33.353Z,1.20
2017-11-13T06:01:00.872Z,1.10
2017-11-13T06:03:28.373Z,1.20
2017-11-13T06:05:55.916Z,1.20
2017-11-13T06:08:23.411Z,1.20
2017-11-13T06:10:51.680Z,1.20
2017-11-13T06:13:19.967Z,1.20
2017-11-13T06:15:48.239Z,1.30
2017-11-13T06:18:16.526Z,1.30
2017-11-13T06:20:44.029Z,1.20
2017-11-13T06:23:11.552Z,1.20
2017-11-13T06:25:39.051Z,1.30
2017-11-13T06:28:06.578Z,1.30
2017-11-13T06:30:34.080Z,1.30
2017-11-13T06:33:01.621Z,1.20
2017-11-13T06:35:29.124Z,1.20
2017-11-13T06:37:57.392Z,1.20
2017-11-13T06:40:25.684Z,1.20
2017-11-13T06:42:53.190Z,1.20
2017-11-13T06:45:20.725Z,1.20
2017-11-13T06:47:48.234Z,1.20
2017-11-13T06:50:16.529Z,1.20
2017-11-13T06:52:44.799Z,1.30
2017-11-13T06:55:13.088Z,1.30
2017-11-13T06:57:40.597Z,1.30
2017-11-13T07:00:08.111Z,1.30
2017-11-13T07:02:35.612Z,1.30
2017-11-13T07:05:03.446Z,1.30
2017-11-13T07:07:38.250Z,1.40
2017-11-13T07:10:12.157Z,1.40
2017-11-13T07:12:43.979Z,1.40
2017-11-13T07:15:18.873Z,1.40
2017-11-13T07:20:24.558Z,1.50
2017-11-13T07:22:54.246Z,1.40
2017-11-13T07:25:21.849Z,1.40
2017-11-13T07:27:49.386Z,1.40
2017-11-13T07:30:16.888Z,1.40
2017-11-13T07:32:45.178Z,1.40
2017-11-13T07:35:12.688Z,1.30
2017-11-13T07:37:40.455Z,1.30
2017-11-13T07:40:08.731Z,1.40
2017-11-13T07:42:36.279Z,1.40
2017-11-13T07:45:03.785Z,1.30
2017-11-13T07:47:31.296Z,1.30
2017-11-13T07:49:58.824Z,1.30
2017-11-13T07:52:26.331Z,1.40
2017-11-13T07:54:53.857Z,1.40
2017-11-13T07:57:21.365Z,1.40
2017-11-13T07:59:49.660Z,1.40
2017-11-13T08:02:17.169Z,1.40
2017-11-13T08:04:44.694Z,1.30
2017-11-13T08:07:12.200Z,1.30
2017-11-13T08:09:39.731Z,1.20
2017-11-13T08:12:07.242Z,1.30
2017-11-13T08:14:35.533Z,1.20
2017-11-13T08:17:03.049Z,1.20
2017-11-13T08:19:30.600Z,1.20
2017-11-13T08:21:58.108Z,1.10
2017-11-13T08:24:25.625Z,1.10
2017-11-13T08:26:53.140Z,1.10
2017-11-13T08:29:20.646Z,1.10
2017-11-13T08:31:48.176Z,1.10
2017-11-13T08:34:15.684Z,1.20
2017-11-13T08:36:43.978Z,1.30
2017-11-13T08:39:11.497Z,1.20
2017-11-13T08:41:39.022Z,1.30
2017-11-13T08:44:06.529Z,1.40
2017-11-13T08:46:34.824Z,1.50
2017-11-13T08:49:02.332Z,1.50
2017-11-13T08:51:29.852Z,1.60
2017-11-13T08:53:57.409Z,1.60
2017-11-13T08:56:24.945Z,1.80
2017-11-13T08:58:53.284Z,2.10
2017-11-13T09:01:20.854Z,2.10
2017-11-13T09:03:48.373Z,2.10
2017-11-13T09:06:15.900Z,2.10
2017-11-13T09:08:44.168Z,1.80
2017-11-13T09:11:12.458Z,1.80
2017-11-13T09:13:39.960Z,1.80
2017-11-13T09:16:07.468Z,1.90
2017-11-13T09:18:35.761Z,2.10
2017-11-13T09:21:03.269Z,2.10
2017-11-13T09:23:30.803Z,2.10
2017-11-13T09:25:58.313Z,2.20
2017-11-13T09:28:26.600Z,2.20
2017-11-13T09:30:54.875Z,2.20
2017-11-13T09:33:23.165Z,2.30
2017-11-13T09:35:50.664Z,2.30
2017-11-13T09:38:18.189Z,2.30
2017-11-13T09:40:45.707Z,2.30
2017-11-13T09:43:14.000Z,2.40
2017-11-13T09:45:41.508Z,2.40
2017-11-13T09:48:09.796Z,2.40
2017-11-13T09:50:37.295Z,2.40
2017-11-13T09:53:05.586Z,2.30
2017-11-13T09:55:33.096Z,2.30
2017-11-13T09:58:00.621Z,2.40
2017-11-13T10:00:28.136Z,2.40
2017-11-13T10:02:56.417Z,2.30
2017-11-13T10:05:24.689Z,2.50
2017-11-13T10:07:52.985Z,2.50
2017-11-13T10:10:20.485Z,2.50
2017-11-13T10:12:48.792Z,2.50
2017-11-13T10:15:17.063Z,2.50
2017-11-13T10:17:45.356Z,2.60
2017-11-13T10:20:13.631Z,2.70
2017-11-13T10:22:41.162Z,2.60
2017-11-13T10:25:08.665Z,2.80
2017-11-13T10:27:36.168Z,2.90
2017-11-13T10:30:03.699Z,3.10
2017-11-13T10:32:31.205Z,3.10
2017-11-13T10:34:58.729Z,3.10
2017-11-13T10:37:26.232Z,3.20
2017-11-13T10:39:54.533Z,3.20
2017-11-13T10:42:22.068Z,3.20
2017-11-13T10:44:50.356Z,3.10
2017-11-13T10:47:17.857Z,3.10
2017-11-13T10:49:45.387Z,3.10
2017-11-13T10:52:12.908Z,3.00
2017-11-13T10:54:41.228Z,3.00
2017-11-13T10:57:08.736Z,3.00
2017-11-13T10:59:36.239Z,3.00
2017-11-13T11:02:03.790Z,3.00
2017-11-13T11:04:31.306Z,3.10
2017-11-13T11:06:58.832Z,3.10
2017-11-13T11:09:26.340Z,3.10
2017-11-13T11:11:54.643Z,3.20
2017-11-13T11:14:22.643Z,3.20
2017-11-13T11:16:56.648Z,3.30
2017-11-13T11:19:24.696Z,3.30
2017-11-13T11:24:56.741Z,3.30
2017-11-13T11:27:24.292Z,3.30
2017-11-13T11:30:08.501Z,3.20
2017-11-13T11:32:38.521Z,3.20
2017-11-13T11:35:15.944Z,3.30
2017-11-13T11:46:44.508Z,3.30
2017-11-13T11:49:13.785Z,3.20
2017-11-13T11:57:47.417Z,3.10
2017-11-13T12:00:14.965Z,3.00
2017-11-13T12:02:43.657Z,3.10
2017-11-13T12:05:11.266Z,3.00
2017-11-13T12:07:38.864Z,3.10
2017-11-13T12:10:06.421Z,3.10
2017-11-13T12:12:33.940Z,3.10
2017-11-13T12:15:02.249Z,3.10
2017-11-13T12:17:29.836Z,3.10
2017-11-13T12:19:58.192Z,3.10
2017-11-13T12:28:31.953Z,3.10
2017-11-13T12:30:59.534Z,3.10
2017-11-13T12:33:47.461Z,3.10
2017-11-13T12:36:15.062Z,3.10
2017-11-13T12:47:12.672Z,2.80
2017-11-13T12:49:40.245Z,2.90
2017-11-13T13:13:30.625Z,3.50
2017-11-13T13:15:58.193Z,3.60
2017-11-13T13:18:25.753Z,3.60
2017-11-13T13:20:53.327Z,3.50
2017-11-13T13:26:24.752Z,3.40
2017-11-13T13:28:52.281Z,3.30
2017-11-13T13:31:19.917Z,3.50
2017-11-13T13:36:51.050Z,3.90
2017-11-13T13:39:18.707Z,3.80
2017-11-13T13:41:50.177Z,3.80
2017-11-13T13:44:17.745Z,3.70
2017-11-13T13:46:45.528Z,3.60
2017-11-13T13:49:13.277Z,3.60
2017-11-13T13:57:50.017Z,3.30
2017-11-13T14:00:17.588Z,3.30
2017-11-13T14:08:41.801Z,3.20
2017-11-13T14:11:09.405Z,3.10
2017-11-13T14:13:40.349Z,3.10
2017-11-13T14:16:07.931Z,3.10
2017-11-13T14:18:35.492Z,3.10
2017-11-13T14:21:03.797Z,3.10
2017-11-13T14:23:34.349Z,3.10
2017-11-13T14:26:01.848Z,3.00
2017-11-13T14:28:29.344Z,3.00
2017-11-13T14:30:56.866Z,2.90
2017-11-13T14:33:24.361Z,2.90
2017-11-13T14:35:51.877Z,2.90
2017-11-13T14:38:19.381Z,2.80
2017-11-13T14:40:46.896Z,2.80
2017-11-13T14:43:15.169Z,2.70
2017-11-13T14:45:42.690Z,2.70
2017-11-13T14:48:10.189Z,2.70
2017-11-13T14:50:38.494Z,2.70
2017-11-13T14:53:05.988Z,2.70
2017-11-13T14:55:33.526Z,2.70
2017-11-13T14:58:01.038Z,2.60
2017-11-13T15:00:28.532Z,2.60
2017-11-13T15:02:56.055Z,2.60
2017-11-13T15:05:23.548Z,2.60
2017-11-13T15:07:51.058Z,2.50
2017-11-13T15:10:18.551Z,2.60
2017-11-13T15:12:46.305Z,2.50
2017-11-13T15:15:14.566Z,2.50
2017-11-13T15:17:42.093Z,2.50
2017-11-13T15:20:09.593Z,2.40
2017-11-13T15:22:37.892Z,2.40
2017-11-13T15:25:05.388Z,2.40
2017-11-13T15:27:32.913Z,2.40
2017-11-13T15:30:00.425Z,2.40
2017-11-13T15:32:27.922Z,2.30
2017-11-13T15:34:56.111Z,2.30
2017-11-13T15:37:23.632Z,2.30
2017-11-13T15:39:51.913Z,2.30
2017-11-13T15:42:20.180Z,2.20
2017-11-13T15:44:48.462Z,2.20
2017-11-13T15:47:16.737Z,2.20
2017-11-13T15:49:45.025Z,2.10
2017-11-13T15:52:12.521Z,2.10
2017-11-13T15:54:40.033Z,2.10
2017-11-13T15:57:07.541Z,2.10
2017-11-13T15:59:35.056Z,2.10
2017-11-13T16:02:03.320Z,2.10
2017-11-13T16:04:31.583Z,2.10
2017-11-13T16:06:59.874Z,2.10
2017-11-13T16:09:28.137Z,2.00
2017-11-13T16:11:55.653Z,2.00
2017-11-13T16:14:23.148Z,2.00
2017-11-13T16:16:51.447Z,2.00
2017-11-13T16:19:19.709Z,2.00
2017-11-13T16:21:47.999Z,2.00
2017-11-13T16:24:15.505Z,1.90
2017-11-13T16:26:43.031Z,2.00
2017-11-13T16:29:10.529Z,2.00
2017-11-13T16:31:38.043Z,2.00
2017-11-13T16:34:05.536Z,2.00
2017-11-13T16:36:33.027Z,2.00
2017-11-13T16:39:00.546Z,2.00
2017-11-13T16:41:28.049Z,2.00
2017-11-13T16:43:56.337Z,1.90
2017-11-13T16:46:24.599Z,1.90
2017-11-13T16:48:52.889Z,1.90
2017-11-13T16:51:21.144Z,2.00
2017-11-13T16:53:48.658Z,2.00
2017-11-13T16:56:16.153Z,2.00
2017-11-13T16:58:43.670Z,1.90
2017-11-13T17:01:11.165Z,1.90
2017-11-13T17:03:38.696Z,1.80
2017-11-13T17:06:06.195Z,1.90
2017-11-13T17:08:33.942Z,1.90
2017-11-13T17:11:01.469Z,1.80
2017-11-13T17:13:28.974Z,1.80
2017-11-13T17:15:57.264Z,1.80
2017-11-13T17:18:25.753Z,1.90
2017-11-13T17:20:54.032Z,1.80
2017-11-13T17:23:22.301Z,1.80
2017-11-13T17:25:49.836Z,1.80
2017-11-13T17:28:17.347Z,1.80
2017-11-13T17:30:45.111Z,1.70
2017-11-13T17:33:12.603Z,1.50
2017-11-13T17:35:40.123Z,1.50
2017-11-13T17:38:07.617Z,1.40
2017-11-13T17:40:35.163Z,1.40
2017-11-13T17:43:02.668Z,1.50
2017-11-13T17:45:30.936Z,1.40
2017-11-13T17:47:59.225Z,1.40
2017-11-13T17:50:27.488Z,1.40
2017-11-13T17:52:55.771Z,1.50
2017-11-13T17:55:24.036Z,1.60
2017-11-13T17:57:51.556Z,1.60
2017-11-13T18:00:19.049Z,1.50
2017-11-13T18:02:47.347Z,1.40
2017-11-13T18:05:15.608Z,1.30
2017-11-13T18:07:43.892Z,1.30
2017-11-13T18:10:12.151Z,1.20
2017-11-13T18:12:39.700Z,1.20
2017-11-13T18:15:07.221Z,1.40
2017-11-13T18:17:34.716Z,1.30
2017-11-13T18:20:02.242Z,1.40
2017-11-13T18:22:29.740Z,1.20
2017-11-13T18:24:57.256Z,1.30
2017-11-13T18:27:24.756Z,1.30
2017-11-13T18:29:52.284Z,1.30
2017-11-13T18:32:19.785Z,1.30
2017-11-13T18:34:48.068Z,1.30
2017-11-13T18:37:15.585Z,1.30
2017-11-13T18:39:43.119Z,1.30
2017-11-13T18:42:10.612Z,1.30
2017-11-13T18:44:38.115Z,1.20
2017-11-13T18:47:05.631Z,1.20
2017-11-13T18:49:33.128Z,1.20
2017-11-13T18:52:00.652Z,1.20
2017-11-13T18:54:28.156Z,1.20
2017-11-13T18:56:55.675Z,1.20
2017-11-13T18:59:23.176Z,1.20
2017-11-13T19:01:50.710Z,1.20
2017-11-13T19:04:18.988Z,1.10
2017-11-13T19:06:46.526Z,1.10
2017-11-13T19:09:14.791Z,1.10
2017-11-13T19:11:42.289Z,1.10
2017-11-13T19:14:09.807Z,1.20
2017-11-13T19:16:37.318Z,1.20
2017-11-13T19:19:04.848Z,1.20
2017-11-13T19:21:33.120Z,1.30
2017-11-13T19:24:01.416Z,1.20
2017-11-13T19:26:28.924Z,1.20
2017-11-13T19:28:56.464Z,1.30
2017-11-13T19:31:23.968Z,1.40
2017-11-13T19:33:52.231Z,1.40
2017-11-13T19:36:19.780Z,1.40
2017-11-13T19:38:48.132Z,1.40
2017-11-13T19:41:15.657Z,1.30
2017-11-13T19:43:43.159Z,1.40
2017-11-13T19:46:10.712Z,1.40
2017-11-13T19:48:38.220Z,1.40
2017-11-13T19:51:06.512Z,1.40
2017-11-13T19:53:34.068Z,1.40
2017-11-13T19:56:01.605Z,1.40
2017-11-13T19:58:29.952Z,1.40
2017-11-13T20:00:57.492Z,1.40
2017-11-13T20:03:25.083Z,1.40
2017-11-13T20:05:52.610Z,1.40
2017-11-13T20:08:20.167Z,1.40
2017-11-13T20:10:47.774Z,1.50
2017-11-13T20:13:16.336Z,1.50
2017-11-13T20:15:43.836Z,1.50
2017-11-13T20:18:11.428Z,1.50
2017-11-13T20:20:38.948Z,1.60
2017-11-13T20:23:07.261Z,1.50
2017-11-13T20:25:34.796Z,1.50
2017-11-13T20:28:02.363Z,1.50
2017-11-13T20:30:29.869Z,1.50
2017-11-13T20:32:57.397Z,1.50
2017-11-13T20:35:24.938Z,1.50
2017-11-13T20:37:52.545Z,1.50
2017-11-13T20:40:20.065Z,1.50
2017-11-13T20:42:47.597Z,1.50
2017-11-13T20:45:15.887Z,1.40
2017-11-13T20:47:43.383Z,1.40
2017-11-13T20:50:10.934Z,1.50
2017-11-13T20:52:38.456Z,1.50
2017-11-13T20:55:06.010Z,1.50
2017-11-13T20:57:33.560Z,1.40
2017-11-13T21:00:01.885Z,1.20
2017-11-13T21:02:29.471Z,1.20
2017-11-13T21:04:56.979Z,1.10
2017-11-13T21:07:24.524Z,1.10
2017-11-13T21:09:52.040Z,1.00
2017-11-13T21:12:19.560Z,1.10
2017-11-13T21:14:47.060Z,1.00
2017-11-13T21:17:14.580Z,1.00
2017-11-13T21:19:42.076Z,1.00
2017-11-13T21:22:09.628Z,1.00
2017-11-13T21:24:37.477Z,1.00
2017-11-13T21:27:05.008Z,1.00
2017-11-13T21:29:32.511Z,1.00
2017-11-13T21:32:00.012Z,1.00
2017-11-13T21:34:27.533Z,1.00
2017-11-13T21:36:55.031Z,1.00
2017-11-13T21:39:22.552Z,1.00
2017-11-13T21:41:50.061Z,1.00
2017-11-13T21:44:17.579Z,0.90
2017-11-13T21:46:45.325Z,0.90
2017-11-13T21:49:12.854Z,1.00
2017-11-13T21:51:40.366Z,1.00
2017-11-13T21:54:08.652Z,1.00
2017-11-13T21:56:36.930Z,0.90
2017-11-13T21:59:05.212Z,0.80
2017-11-13T22:01:32.720Z,0.80
2017-11-13T22:04:00.248Z,0.80
2017-11-13T22:06:27.752Z,0.80
2017-11-13T22:08:55.275Z,0.70
2017-11-13T22:11:22.772Z,0.70
2017-11-13T22:13:50.292Z,0.60
2017-11-13T22:16:17.793Z,0.60
2017-11-13T22:18:45.311Z,0.60
2017-11-13T22:21:12.807Z,0.60
2017-11-13T22:23:40.336Z,0.60
2017-11-13T22:26:07.837Z,0.60
2017-11-13T22:28:36.130Z,0.70
2017-11-13T22:31:03.636Z,0.70
2017-11-13T22:33:31.158Z,0.70
2017-11-13T22:35:58.664Z,0.80
2017-11-13T22:38:26.202Z,0.80
2017-11-13T22:40:53.758Z,0.80
2017-11-13T22:43:21.320Z,0.80
2017-11-13T22:45:48.971Z,0.70
2017-11-13T22:48:16.617Z,0.70
2017-11-13T22:50:44.121Z,0.60
2017-11-13T22:53:11.663Z,0.60
2017-11-13T22:55:39.171Z,0.60
2017-11-13T22:58:07.461Z,0.70
2017-11-13T23:00:34.964Z,0.70
2017-11-13T23:03:02.492Z,0.70
2017-11-13T23:05:29.996Z,0.80
2017-11-13T23:07:58.302Z,0.80
2017-11-13T23:10:25.797Z,0.80
2017-11-13T23:12:53.317Z,0.80
2017-11-13T23:15:20.818Z,0.80
2017-11-13T23:17:48.341Z,0.90
2017-11-13T23:20:15.846Z,0.90
2017-11-13T23:22:43.363Z,0.90
2017-11-13T23:25:10.864Z,0.90
2017-11-13T23:27:38.364Z,0.90
2017-11-13T23:30:05.885Z,1.00
2017-11-13T23:32:33.383Z,1.00
2017-11-13T23:35:00.909Z,1.00
2017-11-13T23:37:28.414Z,1.10
2017-11-13T23:39:55.942Z,1.10
2017-11-13T23:42:24.214Z,1.10
2017-11-13T23:44:52.511Z,1.10
2017-11-13T23:47:20.013Z,1.10
2017-11-13T23:49:47.536Z,1.10
2017-11-13T23:52:15.039Z,1.10
2017-11-13T23:54:42.593Z,1.10
2017-11-13T23:57:10.101Z,1.20
2017-11-13T23:59:37.627Z,1.20
